sensor_id;sensor_type;location;lat;lon;timestamp;P1;durP1;ratioP1;P2;durP2;ratioP2
54384;SDS011;40284;52.878;5.998;2022-08-03T00:01:40;7.75;;;2.70;;
54384;SDS011;40284;52.878;5.998;2022-08-03T00:04:07;7.05;;;2.13;;
54384;SDS011;40284;52.878;5.998;2022-08-03T00:06:33;8.75;;;2.53;;
54384;SDS011;40284;52.878;5.998;2022-08-03T00:09:00;8.80;;;2.53;;
54384;SDS011;40284;52.878;5.998;2022-08-03T00:11:26;10.93;;;2.42;;
54384;SDS011;40284;52.878;5.998;2022-08-03T00:13:52;5.65;;;2.45;;
54384;SDS011;40284;52.878;5.998;2022-08-03T00:16:18;5.40;;;2.33;;
54384;SDS011;40284;52.878;5.998;2022-08-03T00:18:44;7.07;;;2.40;;
54384;SDS011;40284;52.878;5.998;2022-08-03T00:21:11;9.40;;;2.42;;
54384;SDS011;40284;52.878;5.998;2022-08-03T00:23:37;10.80;;;2.70;;
54384;SDS011;40284;52.878;5.998;2022-08-03T00:26:03;6.75;;;2.40;;
54384;SDS011;40284;52.878;5.998;2022-08-03T00:28:29;6.10;;;2.53;;
54384;SDS011;40284;52.878;5.998;2022-08-03T00:30:55;7.35;;;1.90;;
54384;SDS011;40284;52.878;5.998;2022-08-03T00:33:21;5.25;;;2.05;;
54384;SDS011;40284;52.878;5.998;2022-08-03T00:35:47;7.18;;;1.80;;
54384;SDS011;40284;52.878;5.998;2022-08-03T00:38:13;10.07;;;2.55;;
54384;SDS011;40284;52.878;5.998;2022-08-03T00:40:39;11.00;;;2.78;;
54384;SDS011;40284;52.878;5.998;2022-08-03T00:43:06;5.15;;;1.40;;
54384;SDS011;40284;52.878;5.998;2022-08-03T00:45:36;3.67;;;1.60;;
54384;SDS011;40284;52.878;5.998;2022-08-03T00:48:03;4.30;;;1.95;;
54384;SDS011;40284;52.878;5.998;2022-08-03T00:50:31;4.57;;;1.70;;
54384;SDS011;40284;52.878;5.998;2022-08-03T00:52:59;7.38;;;2.40;;
54384;SDS011;40284;52.878;5.998;2022-08-03T00:55:25;8.02;;;2.65;;
54384;SDS011;40284;52.878;5.998;2022-08-03T00:57:52;6.50;;;1.88;;
54384;SDS011;40284;52.878;5.998;2022-08-03T01:00:23;7.65;;;1.95;;
54384;SDS011;40284;52.878;5.998;2022-08-03T01:02:49;11.05;;;2.50;;
54384;SDS011;40284;52.878;5.998;2022-08-03T01:05:15;7.07;;;1.70;;
54384;SDS011;40284;52.878;5.998;2022-08-03T01:16:41;8.38;;;1.65;;
54384;SDS011;40284;52.878;5.998;2022-08-03T01:24:32;9.23;;;1.90;;
54384;SDS011;40284;52.878;5.998;2022-08-03T01:27:14;7.07;;;2.38;;
54384;SDS011;40284;52.878;5.998;2022-08-03T01:32:15;4.72;;;2.58;;
54384;SDS011;40284;52.878;5.998;2022-08-03T01:34:44;9.55;;;2.70;;
54384;SDS011;40284;52.878;5.998;2022-08-03T01:37:12;6.35;;;2.08;;
54384;SDS011;40284;52.878;5.998;2022-08-03T01:39:39;9.20;;;3.22;;
54384;SDS011;40284;52.878;5.998;2022-08-03T01:42:06;6.18;;;2.42;;
54384;SDS011;40284;52.878;5.998;2022-08-03T01:44:36;12.77;;;3.08;;
54384;SDS011;40284;52.878;5.998;2022-08-03T01:47:03;6.63;;;2.38;;
54384;SDS011;40284;52.878;5.998;2022-08-03T01:49:30;7.43;;;2.17;;
54384;SDS011;40284;52.878;5.998;2022-08-03T01:51:58;10.30;;;2.13;;
54384;SDS011;40284;52.878;5.998;2022-08-03T01:54:24;7.82;;;2.13;;
54384;SDS011;40284;52.878;5.998;2022-08-03T01:56:51;8.75;;;2.40;;
54384;SDS011;40284;52.878;5.998;2022-08-03T01:59:19;10.38;;;2.17;;
54384;SDS011;40284;52.878;5.998;2022-08-03T02:01:46;9.40;;;2.35;;
54384;SDS011;40284;52.878;5.998;2022-08-03T02:04:14;6.10;;;1.98;;
54384;SDS011;40284;52.878;5.998;2022-08-03T02:06:42;7.63;;;2.30;;
54384;SDS011;40284;52.878;5.998;2022-08-03T02:09:11;10.05;;;3.30;;
54384;SDS011;40284;52.878;5.998;2022-08-03T02:11:38;10.60;;;2.95;;
54384;SDS011;40284;52.878;5.998;2022-08-03T02:14:05;8.10;;;2.05;;
54384;SDS011;40284;52.878;5.998;2022-08-03T02:16:31;14.70;;;2.58;;
54384;SDS011;40284;52.878;5.998;2022-08-03T02:18:58;10.18;;;3.17;;
54384;SDS011;40284;52.878;5.998;2022-08-03T02:21:28;5.40;;;2.50;;
54384;SDS011;40284;52.878;5.998;2022-08-03T02:23:54;7.03;;;2.03;;
54384;SDS011;40284;52.878;5.998;2022-08-03T02:26:20;8.35;;;2.78;;
54384;SDS011;40284;52.878;5.998;2022-08-03T02:28:47;14.05;;;2.78;;
54384;SDS011;40284;52.878;5.998;2022-08-03T02:31:17;8.68;;;2.22;;
54384;SDS011;40284;52.878;5.998;2022-08-03T02:33:48;8.95;;;2.28;;
54384;SDS011;40284;52.878;5.998;2022-08-03T02:36:15;7.88;;;2.20;;
54384;SDS011;40284;52.878;5.998;2022-08-03T02:38:43;8.43;;;2.28;;
54384;SDS011;40284;52.878;5.998;2022-08-03T02:41:15;7.97;;;3.10;;
54384;SDS011;40284;52.878;5.998;2022-08-03T02:43:44;7.57;;;2.40;;
54384;SDS011;40284;52.878;5.998;2022-08-03T02:46:10;10.68;;;3.22;;
54384;SDS011;40284;52.878;5.998;2022-08-03T02:48:38;5.70;;;2.83;;
54384;SDS011;40284;52.878;5.998;2022-08-03T02:51:06;6.40;;;2.40;;
54384;SDS011;40284;52.878;5.998;2022-08-03T02:53:33;6.55;;;2.95;;
54384;SDS011;40284;52.878;5.998;2022-08-03T02:56:00;17.05;;;4.28;;
54384;SDS011;40284;52.878;5.998;2022-08-03T02:58:27;7.35;;;3.00;;
54384;SDS011;40284;52.878;5.998;2022-08-03T03:00:53;9.27;;;3.00;;
54384;SDS011;40284;52.878;5.998;2022-08-03T03:03:20;6.78;;;3.47;;
54384;SDS011;40284;52.878;5.998;2022-08-03T03:05:47;5.43;;;3.70;;
54384;SDS011;40284;52.878;5.998;2022-08-03T03:08:15;8.32;;;3.08;;
54384;SDS011;40284;52.878;5.998;2022-08-03T03:10:42;13.77;;;4.00;;
54384;SDS011;40284;52.878;5.998;2022-08-03T03:13:08;7.97;;;3.08;;
54384;SDS011;40284;52.878;5.998;2022-08-03T03:15:35;9.07;;;3.20;;
54384;SDS011;40284;52.878;5.998;2022-08-03T03:18:03;7.85;;;3.45;;
54384;SDS011;40284;52.878;5.998;2022-08-03T03:20:30;10.23;;;3.35;;
54384;SDS011;40284;52.878;5.998;2022-08-03T03:22:58;11.77;;;3.30;;
54384;SDS011;40284;52.878;5.998;2022-08-03T03:25:25;8.90;;;3.30;;
54384;SDS011;40284;52.878;5.998;2022-08-03T03:27:51;5.70;;;2.92;;
54384;SDS011;40284;52.878;5.998;2022-08-03T03:30:18;12.68;;;3.25;;
54384;SDS011;40284;52.878;5.998;2022-08-03T03:32:44;7.22;;;3.70;;
54384;SDS011;40284;52.878;5.998;2022-08-03T03:35:10;9.80;;;3.20;;
54384;SDS011;40284;52.878;5.998;2022-08-03T03:37:36;10.68;;;3.67;;
54384;SDS011;40284;52.878;5.998;2022-08-03T03:40:03;10.48;;;3.13;;
54384;SDS011;40284;52.878;5.998;2022-08-03T03:42:29;11.55;;;4.18;;
54384;SDS011;40284;52.878;5.998;2022-08-03T03:44:55;6.82;;;3.58;;
54384;SDS011;40284;52.878;5.998;2022-08-03T03:47:21;8.80;;;3.10;;
54384;SDS011;40284;52.878;5.998;2022-08-03T03:49:48;9.75;;;3.13;;
54384;SDS011;40284;52.878;5.998;2022-08-03T03:52:15;10.68;;;3.42;;
54384;SDS011;40284;52.878;5.998;2022-08-03T03:54:41;8.18;;;3.58;;
54384;SDS011;40284;52.878;5.998;2022-08-03T03:57:08;13.38;;;3.45;;
54384;SDS011;40284;52.878;5.998;2022-08-03T03:59:38;9.85;;;3.20;;
54384;SDS011;40284;52.878;5.998;2022-08-03T04:02:05;10.70;;;4.25;;
54384;SDS011;40284;52.878;5.998;2022-08-03T04:04:32;11.68;;;3.00;;
54384;SDS011;40284;52.878;5.998;2022-08-03T04:07:17;9.80;;;3.17;;
54384;SDS011;40284;52.878;5.998;2022-08-03T04:10:03;6.28;;;2.65;;
54384;SDS011;40284;52.878;5.998;2022-08-03T04:12:49;9.43;;;3.28;;
54384;SDS011;40284;52.878;5.998;2022-08-03T04:15:16;10.07;;;3.03;;
54384;SDS011;40284;52.878;5.998;2022-08-03T04:17:43;9.07;;;3.35;;
54384;SDS011;40284;52.878;5.998;2022-08-03T04:20:10;11.68;;;3.30;;
54384;SDS011;40284;52.878;5.998;2022-08-03T04:22:36;7.68;;;2.88;;
54384;SDS011;40284;52.878;5.998;2022-08-03T04:25:04;11.50;;;3.30;;
54384;SDS011;40284;52.878;5.998;2022-08-03T04:27:36;8.88;;;3.10;;
54384;SDS011;40284;52.878;5.998;2022-08-03T04:30:04;8.57;;;2.75;;
54384;SDS011;40284;52.878;5.998;2022-08-03T04:32:30;8.07;;;3.05;;
54384;SDS011;40284;52.878;5.998;2022-08-03T04:34:58;8.75;;;2.83;;
54384;SDS011;40284;52.878;5.998;2022-08-03T04:39:50;8.98;;;3.00;;
54384;SDS011;40284;52.878;5.998;2022-08-03T04:42:17;9.70;;;2.95;;
54384;SDS011;40284;52.878;5.998;2022-08-03T04:44:45;8.30;;;3.00;;
54384;SDS011;40284;52.878;5.998;2022-08-03T04:47:11;10.40;;;3.50;;
54384;SDS011;40284;52.878;5.998;2022-08-03T04:49:38;14.40;;;3.67;;
54384;SDS011;40284;52.878;5.998;2022-08-03T04:52:06;11.15;;;3.80;;
54384;SDS011;40284;52.878;5.998;2022-08-03T04:54:41;10.27;;;3.53;;
54384;SDS011;40284;52.878;5.998;2022-08-03T04:57:11;12.23;;;3.08;;
54384;SDS011;40284;52.878;5.998;2022-08-03T04:59:37;9.88;;;3.03;;
54384;SDS011;40284;52.878;5.998;2022-08-03T05:02:03;7.47;;;3.03;;
54384;SDS011;40284;52.878;5.998;2022-08-03T05:04:31;11.35;;;3.50;;
54384;SDS011;40284;52.878;5.998;2022-08-03T05:06:57;8.60;;;3.58;;
54384;SDS011;40284;52.878;5.998;2022-08-03T05:09:23;11.02;;;3.55;;
54384;SDS011;40284;52.878;5.998;2022-08-03T05:11:49;12.55;;;4.15;;
54384;SDS011;40284;52.878;5.998;2022-08-03T05:14:15;12.18;;;3.60;;
54384;SDS011;40284;52.878;5.998;2022-08-03T05:16:41;9.68;;;3.40;;
54384;SDS011;40284;52.878;5.998;2022-08-03T05:19:07;9.20;;;3.80;;
54384;SDS011;40284;52.878;5.998;2022-08-03T05:21:33;13.35;;;3.70;;
54384;SDS011;40284;52.878;5.998;2022-08-03T05:23:59;13.85;;;3.95;;
54384;SDS011;40284;52.878;5.998;2022-08-03T05:26:25;19.63;;;4.00;;
54384;SDS011;40284;52.878;5.998;2022-08-03T05:28:51;12.98;;;4.22;;
54384;SDS011;40284;52.878;5.998;2022-08-03T05:31:18;9.80;;;3.92;;
54384;SDS011;40284;52.878;5.998;2022-08-03T05:33:44;8.07;;;3.08;;
54384;SDS011;40284;52.878;5.998;2022-08-03T05:36:11;7.93;;;3.22;;
54384;SDS011;40284;52.878;5.998;2022-08-03T05:38:37;9.35;;;3.20;;
54384;SDS011;40284;52.878;5.998;2022-08-03T05:41:04;9.30;;;3.85;;
54384;SDS011;40284;52.878;5.998;2022-08-03T05:43:30;12.50;;;4.32;;
54384;SDS011;40284;52.878;5.998;2022-08-03T05:45:56;12.65;;;3.85;;
54384;SDS011;40284;52.878;5.998;2022-08-03T05:48:23;7.28;;;3.08;;
54384;SDS011;40284;52.878;5.998;2022-08-03T05:50:49;12.93;;;3.50;;
54384;SDS011;40284;52.878;5.998;2022-08-03T05:53:15;18.88;;;4.93;;
54384;SDS011;40284;52.878;5.998;2022-08-03T05:55:42;12.48;;;3.25;;
54384;SDS011;40284;52.878;5.998;2022-08-03T05:58:08;13.23;;;3.75;;
54384;SDS011;40284;52.878;5.998;2022-08-03T06:00:34;15.38;;;4.05;;
54384;SDS011;40284;52.878;5.998;2022-08-03T06:03:00;13.13;;;3.85;;
54384;SDS011;40284;52.878;5.998;2022-08-03T06:05:26;16.05;;;4.25;;
54384;SDS011;40284;52.878;5.998;2022-08-03T06:07:53;13.05;;;4.22;;
54384;SDS011;40284;52.878;5.998;2022-08-03T06:10:19;8.48;;;3.65;;
54384;SDS011;40284;52.878;5.998;2022-08-03T06:12:45;16.55;;;4.07;;
54384;SDS011;40284;52.878;5.998;2022-08-03T06:15:13;12.60;;;4.18;;
54384;SDS011;40284;52.878;5.998;2022-08-03T06:17:46;10.60;;;3.50;;
54384;SDS011;40284;52.878;5.998;2022-08-03T06:20:12;14.95;;;4.20;;
54384;SDS011;40284;52.878;5.998;2022-08-03T06:22:38;13.38;;;3.67;;
54384;SDS011;40284;52.878;5.998;2022-08-03T06:25:04;16.52;;;4.85;;
54384;SDS011;40284;52.878;5.998;2022-08-03T06:27:31;14.85;;;4.13;;
54384;SDS011;40284;52.878;5.998;2022-08-03T06:29:57;19.60;;;4.60;;
54384;SDS011;40284;52.878;5.998;2022-08-03T06:32:23;14.73;;;4.35;;
54384;SDS011;40284;52.878;5.998;2022-08-03T06:34:49;16.65;;;4.13;;
54384;SDS011;40284;52.878;5.998;2022-08-03T06:37:15;14.00;;;4.50;;
54384;SDS011;40284;52.878;5.998;2022-08-03T06:39:42;16.98;;;4.25;;
54384;SDS011;40284;52.878;5.998;2022-08-03T06:42:08;19.67;;;4.15;;
54384;SDS011;40284;52.878;5.998;2022-08-03T06:44:34;16.58;;;5.00;;
54384;SDS011;40284;52.878;5.998;2022-08-03T06:47:02;15.05;;;5.13;;
54384;SDS011;40284;52.878;5.998;2022-08-03T06:49:28;17.42;;;5.10;;
54384;SDS011;40284;52.878;5.998;2022-08-03T06:51:54;16.13;;;4.25;;
54384;SDS011;40284;52.878;5.998;2022-08-03T06:54:21;18.60;;;4.57;;
54384;SDS011;40284;52.878;5.998;2022-08-03T06:56:48;12.70;;;5.18;;
54384;SDS011;40284;52.878;5.998;2022-08-03T06:59:14;12.00;;;4.25;;
54384;SDS011;40284;52.878;5.998;2022-08-03T07:01:40;13.65;;;4.68;;
54384;SDS011;40284;52.878;5.998;2022-08-03T07:04:06;11.43;;;4.60;;
54384;SDS011;40284;52.878;5.998;2022-08-03T07:06:32;16.73;;;4.55;;
54384;SDS011;40284;52.878;5.998;2022-08-03T07:08:58;12.63;;;4.78;;
54384;SDS011;40284;52.878;5.998;2022-08-03T07:11:25;17.38;;;5.05;;
54384;SDS011;40284;52.878;5.998;2022-08-03T07:13:52;14.75;;;5.28;;
54384;SDS011;40284;52.878;5.998;2022-08-03T07:16:18;15.07;;;5.47;;
54384;SDS011;40284;52.878;5.998;2022-08-03T07:18:44;17.33;;;5.63;;
54384;SDS011;40284;52.878;5.998;2022-08-03T07:21:10;14.70;;;5.55;;
54384;SDS011;40284;52.878;5.998;2022-08-03T07:23:37;16.90;;;6.22;;
54384;SDS011;40284;52.878;5.998;2022-08-03T07:26:03;15.13;;;5.88;;
54384;SDS011;40284;52.878;5.998;2022-08-03T07:28:29;13.65;;;5.30;;
54384;SDS011;40284;52.878;5.998;2022-08-03T07:30:55;13.48;;;5.97;;
54384;SDS011;40284;52.878;5.998;2022-08-03T07:33:21;11.73;;;4.78;;
54384;SDS011;40284;52.878;5.998;2022-08-03T07:35:47;13.85;;;6.05;;
54384;SDS011;40284;52.878;5.998;2022-08-03T07:38:13;20.25;;;5.70;;
54384;SDS011;40284;52.878;5.998;2022-08-03T07:40:40;21.38;;;6.75;;
54384;SDS011;40284;52.878;5.998;2022-08-03T07:43:06;20.98;;;6.50;;
54384;SDS011;40284;52.878;5.998;2022-08-03T07:45:32;20.30;;;7.13;;
54384;SDS011;40284;52.878;5.998;2022-08-03T07:47:58;15.35;;;6.50;;
54384;SDS011;40284;52.878;5.998;2022-08-03T07:50:24;15.20;;;6.55;;
54384;SDS011;40284;52.878;5.998;2022-08-03T07:52:51;13.95;;;5.88;;
54384;SDS011;40284;52.878;5.998;2022-08-03T07:55:21;19.63;;;6.93;;
54384;SDS011;40284;52.878;5.998;2022-08-03T07:58:04;17.60;;;6.53;;
54384;SDS011;40284;52.878;5.998;2022-08-03T08:00:31;14.32;;;5.63;;
54384;SDS011;40284;52.878;5.998;2022-08-03T08:02:58;13.57;;;6.38;;
54384;SDS011;40284;52.878;5.998;2022-08-03T08:05:24;13.57;;;5.93;;
54384;SDS011;40284;52.878;5.998;2022-08-03T08:07:50;21.05;;;6.78;;
54384;SDS011;40284;52.878;5.998;2022-08-03T08:10:16;12.35;;;5.80;;
54384;SDS011;40284;52.878;5.998;2022-08-03T08:12:42;20.15;;;5.78;;
54384;SDS011;40284;52.878;5.998;2022-08-03T08:15:09;14.95;;;5.80;;
54384;SDS011;40284;52.878;5.998;2022-08-03T08:17:46;16.67;;;5.72;;
54384;SDS011;40284;52.878;5.998;2022-08-03T08:20:15;14.40;;;5.30;;
54384;SDS011;40284;52.878;5.998;2022-08-03T08:22:42;14.43;;;6.00;;
54384;SDS011;40284;52.878;5.998;2022-08-03T08:25:08;15.20;;;5.53;;
54384;SDS011;40284;52.878;5.998;2022-08-03T08:27:39;18.55;;;6.30;;
54384;SDS011;40284;52.878;5.998;2022-08-03T08:30:06;24.93;;;6.00;;
54384;SDS011;40284;52.878;5.998;2022-08-03T08:32:33;19.20;;;6.15;;
54384;SDS011;40284;52.878;5.998;2022-08-03T08:35:01;17.48;;;5.55;;
54384;SDS011;40284;52.878;5.998;2022-08-03T08:37:27;13.13;;;5.88;;
54384;SDS011;40284;52.878;5.998;2022-08-03T08:39:54;18.02;;;7.07;;
54384;SDS011;40284;52.878;5.998;2022-08-03T08:42:20;18.52;;;6.22;;
54384;SDS011;40284;52.878;5.998;2022-08-03T08:44:46;14.27;;;5.85;;
54384;SDS011;40284;52.878;5.998;2022-08-03T08:47:13;15.68;;;6.68;;
54384;SDS011;40284;52.878;5.998;2022-08-03T08:49:39;15.88;;;6.20;;
54384;SDS011;40284;52.878;5.998;2022-08-03T08:52:09;14.27;;;6.38;;
54384;SDS011;40284;52.878;5.998;2022-08-03T08:54:36;14.27;;;6.25;;
54384;SDS011;40284;52.878;5.998;2022-08-03T08:57:05;14.15;;;5.75;;
54384;SDS011;40284;52.878;5.998;2022-08-03T08:59:32;14.32;;;7.07;;
54384;SDS011;40284;52.878;5.998;2022-08-03T09:01:59;17.52;;;6.55;;
54384;SDS011;40284;52.878;5.998;2022-08-03T09:04:25;16.25;;;6.80;;
54384;SDS011;40284;52.878;5.998;2022-08-03T09:06:52;16.33;;;6.55;;
54384;SDS011;40284;52.878;5.998;2022-08-03T09:09:18;17.38;;;6.22;;
54384;SDS011;40284;52.878;5.998;2022-08-03T09:11:44;15.65;;;6.55;;
54384;SDS011;40284;52.878;5.998;2022-08-03T09:14:12;17.90;;;6.57;;
54384;SDS011;40284;52.878;5.998;2022-08-03T09:16:38;16.30;;;6.35;;
54384;SDS011;40284;52.878;5.998;2022-08-03T09:19:23;15.48;;;5.97;;
54384;SDS011;40284;52.878;5.998;2022-08-03T09:22:05;14.65;;;6.72;;
54384;SDS011;40284;52.878;5.998;2022-08-03T09:24:32;18.25;;;7.57;;
54384;SDS011;40284;52.878;5.998;2022-08-03T09:26:58;21.20;;;6.90;;
54384;SDS011;40284;52.878;5.998;2022-08-03T09:29:24;21.17;;;7.47;;
54384;SDS011;40284;52.878;5.998;2022-08-03T09:31:58;15.57;;;7.72;;
54384;SDS011;40284;52.878;5.998;2022-08-03T09:34:24;19.95;;;8.35;;
54384;SDS011;40284;52.878;5.998;2022-08-03T09:36:52;24.70;;;7.72;;
54384;SDS011;40284;52.878;5.998;2022-08-03T09:39:23;18.50;;;7.32;;
54384;SDS011;40284;52.878;5.998;2022-08-03T09:42:07;22.33;;;7.93;;
54384;SDS011;40284;52.878;5.998;2022-08-03T09:44:41;17.73;;;7.35;;
54384;SDS011;40284;52.878;5.998;2022-08-03T09:47:11;17.02;;;7.88;;
54384;SDS011;40284;52.878;5.998;2022-08-03T09:49:38;17.95;;;7.55;;
54384;SDS011;40284;52.878;5.998;2022-08-03T09:52:15;17.13;;;7.13;;
54384;SDS011;40284;52.878;5.998;2022-08-03T09:54:43;18.98;;;7.90;;
54384;SDS011;40284;52.878;5.998;2022-08-03T09:57:19;21.10;;;7.25;;
54384;SDS011;40284;52.878;5.998;2022-08-03T09:59:45;23.52;;;8.80;;
54384;SDS011;40284;52.878;5.998;2022-08-03T10:02:25;17.25;;;7.20;;
54384;SDS011;40284;52.878;5.998;2022-08-03T10:04:51;13.85;;;6.40;;
54384;SDS011;40284;52.878;5.998;2022-08-03T10:07:22;19.20;;;7.18;;
54384;SDS011;40284;52.878;5.998;2022-08-03T10:09:52;28.67;;;7.85;;
54384;SDS011;40284;52.878;5.998;2022-08-03T10:12:21;14.60;;;5.30;;
54384;SDS011;40284;52.878;5.998;2022-08-03T10:14:47;17.58;;;6.95;;
54384;SDS011;40284;52.878;5.998;2022-08-03T10:17:13;15.82;;;5.82;;
54384;SDS011;40284;52.878;5.998;2022-08-03T10:19:39;21.05;;;6.45;;
54384;SDS011;40284;52.878;5.998;2022-08-03T10:22:06;19.40;;;6.68;;
54384;SDS011;40284;52.878;5.998;2022-08-03T10:24:36;17.63;;;7.35;;
54384;SDS011;40284;52.878;5.998;2022-08-03T10:27:07;20.20;;;6.15;;
54384;SDS011;40284;52.878;5.998;2022-08-03T10:29:37;21.40;;;6.40;;
54384;SDS011;40284;52.878;5.998;2022-08-03T10:32:15;18.50;;;6.95;;
54384;SDS011;40284;52.878;5.998;2022-08-03T10:34:43;20.63;;;6.78;;
54384;SDS011;40284;52.878;5.998;2022-08-03T10:37:10;17.08;;;7.72;;
54384;SDS011;40284;52.878;5.998;2022-08-03T10:39:37;22.00;;;7.90;;
54384;SDS011;40284;52.878;5.998;2022-08-03T10:42:20;21.73;;;8.80;;
54384;SDS011;40284;52.878;5.998;2022-08-03T10:44:47;17.55;;;8.38;;
54384;SDS011;40284;52.878;5.998;2022-08-03T10:47:14;23.98;;;9.27;;
54384;SDS011;40284;52.878;5.998;2022-08-03T10:49:40;27.38;;;8.40;;
54384;SDS011;40284;52.878;5.998;2022-08-03T10:52:07;25.38;;;7.60;;
54384;SDS011;40284;52.878;5.998;2022-08-03T10:56:59;19.45;;;9.43;;
54384;SDS011;40284;52.878;5.998;2022-08-03T11:02:10;24.08;;;9.65;;
54384;SDS011;40284;52.878;5.998;2022-08-03T11:04:37;29.70;;;10.95;;
54384;SDS011;40284;52.878;5.998;2022-08-03T11:09:46;20.75;;;9.27;;
54384;SDS011;40284;52.878;5.998;2022-08-03T11:14:52;20.90;;;10.30;;
54384;SDS011;40284;52.878;5.998;2022-08-03T11:17:19;19.80;;;10.68;;
54384;SDS011;40284;52.878;5.998;2022-08-03T11:19:46;18.13;;;9.13;;
54384;SDS011;40284;52.878;5.998;2022-08-03T11:22:12;22.98;;;9.57;;
54384;SDS011;40284;52.878;5.998;2022-08-03T11:37:33;22.13;;;9.88;;
54384;SDS011;40284;52.878;5.998;2022-08-03T11:39:59;17.88;;;9.15;;
54384;SDS011;40284;52.878;5.998;2022-08-03T11:47:19;21.80;;;9.45;;
54384;SDS011;40284;52.878;5.998;2022-08-03T11:49:46;21.45;;;8.65;;
54384;SDS011;40284;52.878;5.998;2022-08-03T11:52:12;24.40;;;9.43;;
54384;SDS011;40284;52.878;5.998;2022-08-03T11:54:38;19.23;;;9.02;;
54384;SDS011;40284;52.878;5.998;2022-08-03T11:57:05;32.25;;;9.43;;
54384;SDS011;40284;52.878;5.998;2022-08-03T11:59:31;24.23;;;9.15;;
54384;SDS011;40284;52.878;5.998;2022-08-03T12:02:07;18.52;;;9.15;;
54384;SDS011;40284;52.878;5.998;2022-08-03T12:04:52;20.10;;;8.13;;
54384;SDS011;40284;52.878;5.998;2022-08-03T12:07:25;20.48;;;9.45;;
54384;SDS011;40284;52.878;5.998;2022-08-03T12:10:10;20.38;;;8.13;;
54384;SDS011;40284;52.878;5.998;2022-08-03T12:12:36;23.60;;;8.35;;
54384;SDS011;40284;52.878;5.998;2022-08-03T12:15:03;21.90;;;8.98;;
54384;SDS011;40284;52.878;5.998;2022-08-03T12:17:33;20.55;;;7.97;;
54384;SDS011;40284;52.878;5.998;2022-08-03T12:19:59;26.98;;;8.25;;
54384;SDS011;40284;52.878;5.998;2022-08-03T12:24:57;20.00;;;7.87;;
54384;SDS011;40284;52.878;5.998;2022-08-03T12:27:24;22.55;;;7.93;;
54384;SDS011;40284;52.878;5.998;2022-08-03T12:29:52;16.27;;;6.97;;
54384;SDS011;40284;52.878;5.998;2022-08-03T12:32:19;17.67;;;6.70;;
54384;SDS011;40284;52.878;5.998;2022-08-03T12:34:46;19.10;;;8.07;;
54384;SDS011;40284;52.878;5.998;2022-08-03T12:37:13;14.30;;;6.80;;
54384;SDS011;40284;52.878;5.998;2022-08-03T12:39:39;18.85;;;7.45;;
54384;SDS011;40284;52.878;5.998;2022-08-03T12:42:05;16.67;;;7.13;;
54384;SDS011;40284;52.878;5.998;2022-08-03T12:44:32;25.40;;;7.72;;
54384;SDS011;40284;52.878;5.998;2022-08-03T12:46:59;13.77;;;6.50;;
54384;SDS011;40284;52.878;5.998;2022-08-03T12:49:26;17.60;;;7.70;;
54384;SDS011;40284;52.878;5.998;2022-08-03T12:54:24;16.23;;;5.85;;
54384;SDS011;40284;52.878;5.998;2022-08-03T12:56:57;18.52;;;6.53;;
54384;SDS011;40284;52.878;5.998;2022-08-03T12:59:27;14.10;;;6.57;;
54384;SDS011;40284;52.878;5.998;2022-08-03T13:01:53;17.60;;;6.60;;
54384;SDS011;40284;52.878;5.998;2022-08-03T13:04:29;14.20;;;7.07;;
54384;SDS011;40284;52.878;5.998;2022-08-03T13:06:56;15.77;;;6.40;;
54384;SDS011;40284;52.878;5.998;2022-08-03T13:09:22;12.57;;;5.82;;
54384;SDS011;40284;52.878;5.998;2022-08-03T13:14:31;13.95;;;5.43;;
54384;SDS011;40284;52.878;5.998;2022-08-03T13:16:57;15.88;;;6.63;;
54384;SDS011;40284;52.878;5.998;2022-08-03T13:19:23;11.43;;;5.68;;
54384;SDS011;40284;52.878;5.998;2022-08-03T13:21:50;15.10;;;5.80;;
54384;SDS011;40284;52.878;5.998;2022-08-03T13:24:16;11.93;;;6.47;;
54384;SDS011;40284;52.878;5.998;2022-08-03T13:26:43;9.80;;;4.78;;
54384;SDS011;40284;52.878;5.998;2022-08-03T13:29:09;13.85;;;5.82;;
54384;SDS011;40284;52.878;5.998;2022-08-03T13:31:35;12.15;;;5.25;;
54384;SDS011;40284;52.878;5.998;2022-08-03T13:34:01;16.98;;;4.63;;
54384;SDS011;40284;52.878;5.998;2022-08-03T13:36:27;14.10;;;4.90;;
54384;SDS011;40284;52.878;5.998;2022-08-03T13:38:53;11.50;;;4.93;;
54384;SDS011;40284;52.878;5.998;2022-08-03T13:41:19;16.75;;;4.60;;
54384;SDS011;40284;52.878;5.998;2022-08-03T13:43:44;12.05;;;4.25;;
54384;SDS011;40284;52.878;5.998;2022-08-03T13:46:10;13.63;;;4.70;;
54384;SDS011;40284;52.878;5.998;2022-08-03T13:48:36;11.82;;;4.25;;
54384;SDS011;40284;52.878;5.998;2022-08-03T13:51:03;12.48;;;4.63;;
54384;SDS011;40284;52.878;5.998;2022-08-03T13:53:31;14.43;;;4.70;;
54384;SDS011;40284;52.878;5.998;2022-08-03T13:55:57;14.35;;;4.85;;
54384;SDS011;40284;52.878;5.998;2022-08-03T13:58:23;14.63;;;4.97;;
54384;SDS011;40284;52.878;5.998;2022-08-03T14:00:49;15.82;;;5.10;;
54384;SDS011;40284;52.878;5.998;2022-08-03T14:03:15;13.68;;;4.78;;
54384;SDS011;40284;52.878;5.998;2022-08-03T14:05:42;11.13;;;4.93;;
54384;SDS011;40284;52.878;5.998;2022-08-03T14:08:08;10.10;;;4.22;;
54384;SDS011;40284;52.878;5.998;2022-08-03T14:10:35;12.65;;;4.05;;
54384;SDS011;40284;52.878;5.998;2022-08-03T14:13:02;13.75;;;5.28;;
54384;SDS011;40284;52.878;5.998;2022-08-03T14:15:28;10.57;;;4.60;;
54384;SDS011;40284;52.878;5.998;2022-08-03T14:17:55;12.80;;;4.18;;
54384;SDS011;40284;52.878;5.998;2022-08-03T14:20:21;10.82;;;3.45;;
54384;SDS011;40284;52.878;5.998;2022-08-03T14:22:47;10.63;;;3.75;;
54384;SDS011;40284;52.878;5.998;2022-08-03T14:25:13;14.77;;;4.57;;
54384;SDS011;40284;52.878;5.998;2022-08-03T14:27:39;15.30;;;4.38;;
54384;SDS011;40284;52.878;5.998;2022-08-03T14:30:05;12.15;;;4.25;;
54384;SDS011;40284;52.878;5.998;2022-08-03T14:32:32;7.65;;;3.85;;
54384;SDS011;40284;52.878;5.998;2022-08-03T14:34:58;12.85;;;4.50;;
54384;SDS011;40284;52.878;5.998;2022-08-03T14:37:24;11.85;;;4.32;;
54384;SDS011;40284;52.878;5.998;2022-08-03T14:39:50;15.82;;;4.13;;
54384;SDS011;40284;52.878;5.998;2022-08-03T14:42:16;10.85;;;4.20;;
54384;SDS011;40284;52.878;5.998;2022-08-03T14:44:42;10.05;;;4.28;;
54384;SDS011;40284;52.878;5.998;2022-08-03T14:47:08;11.35;;;4.10;;
54384;SDS011;40284;52.878;5.998;2022-08-03T14:49:34;8.15;;;3.83;;
54384;SDS011;40284;52.878;5.998;2022-08-03T14:52:00;13.70;;;4.68;;
54384;SDS011;40284;52.878;5.998;2022-08-03T14:54:26;9.82;;;4.00;;
54384;SDS011;40284;52.878;5.998;2022-08-03T14:56:54;8.30;;;5.13;;
54384;SDS011;40284;52.878;5.998;2022-08-03T14:59:21;17.20;;;4.70;;
54384;SDS011;40284;52.878;5.998;2022-08-03T15:01:47;7.75;;;3.72;;
54384;SDS011;40284;52.878;5.998;2022-08-03T15:04:13;13.48;;;4.60;;
54384;SDS011;40284;52.878;5.998;2022-08-03T15:06:39;10.30;;;4.38;;
54384;SDS011;40284;52.878;5.998;2022-08-03T15:09:05;17.92;;;5.10;;
54384;SDS011;40284;52.878;5.998;2022-08-03T15:11:31;15.75;;;5.05;;
54384;SDS011;40284;52.878;5.998;2022-08-03T15:13:57;11.55;;;3.90;;
54384;SDS011;40284;52.878;5.998;2022-08-03T15:16:23;12.02;;;3.63;;
54384;SDS011;40284;52.878;5.998;2022-08-03T15:18:49;7.82;;;3.47;;
54384;SDS011;40284;52.878;5.998;2022-08-03T15:21:15;12.65;;;4.13;;
54384;SDS011;40284;52.878;5.998;2022-08-03T15:23:41;16.30;;;3.78;;
54384;SDS011;40284;52.878;5.998;2022-08-03T15:26:07;10.73;;;3.63;;
54384;SDS011;40284;52.878;5.998;2022-08-03T15:28:33;12.63;;;3.33;;
54384;SDS011;40284;52.878;5.998;2022-08-03T15:30:59;9.43;;;2.85;;
54384;SDS011;40284;52.878;5.998;2022-08-03T15:33:26;11.43;;;3.60;;
54384;SDS011;40284;52.878;5.998;2022-08-03T15:35:52;12.57;;;3.30;;